Report METAR

 

LIML - Milano/Linate, Italy
Distance from station: NO 27km
Dati ricevuti: 18/04/2021 22:20
Parz. nuvoloso
Parz. nuvoloso
 Vento da E
Vento: E 7 km/h
Temperatura: 11°C
P.to Rugiada: 5°C
Umidità: 67%
Barometro: 1017 hPa
Nuvole: Parz. nuvoloso
Visibility: 10 km
Cloud details: Parz. nuvoloso 3048 m
2021/04/18 20:20 LIML 182020Z 08004KT 050V110 9999 SCT100 11/05 Q1017 NOSIG
LIME - Bergamo/Orio Ser, Italy
Distance from station: NNE 43km
Dati ricevuti: 18/04/2021 22:20
Molto nuvoloso
Molto nuvoloso
 Vento da N
Vento: N 6 km/h
Temperatura: 9°C
P.to Rugiada: 6°C
Umidità: 82%
Barometro: 1017 hPa
Nuvole: Molto nuvoloso
Visibility: 10 km
Cloud details: Molto nuvoloso 3048 m
2021/04/18 20:20 LIME 182020Z AUTO 36003KT 9999 BKN100/// 09/06 Q1017
 
LIMS - Piacenza, it-Afb, Italy
Distance from station: SSE 45km
Dati ricevuti: 18/04/2021 19:55
DATI Obsoleti
Sereno
Sereno
 Vento da ESE
Vento: ESE 11 km/h
Temperatura: 11°C
P.to Rugiada: 6°C
Umidità: 72%
Barometro: 1015 hPa
Summary: Sereno
Visibility: superiore a 10 km
2021/04/18 17:55 LIMS 181755Z 12006KT CAVOK 11/06 Q1015
LIPO - Brescia/Montichi, Italy
Distance from station: ENE 65km
Dati ricevuti: 18/04/2021 22:20
Molto nuvoloso
Molto nuvoloso
 Vento da Variabile
Vento: Variabile 2 km/h
Temperatura: 10°C
P.to Rugiada: 6°C
Umidità: 76%
Barometro: 1017 hPa
Nuvole: Molto nuvoloso
Visibility: 10 km
Cloud details: Molto nuvoloso 2438 m
2021/04/18 20:20 LIPO 182020Z AUTO VRB01KT 9999 BKN080/// 10/06 Q1017